sensor_id;sensor_type;location;lat;lon;timestamp;temperature;humidity
9837;DHT22;4957;51.412;6.724;2023-07-31T00:00:27;19.80;99.90
9837;DHT22;4957;51.412;6.724;2023-07-31T00:02:52;19.80;99.80
9837;DHT22;4957;51.412;6.724;2023-07-31T00:05:18;19.80;99.70
9837;DHT22;4957;51.412;6.724;2023-07-31T00:07:44;19.70;99.80
9837;DHT22;4957;51.412;6.724;2023-07-31T00:10:09;19.70;99.90
9837;DHT22;4957;51.412;6.724;2023-07-31T00:12:36;19.70;99.90
9837;DHT22;4957;51.412;6.724;2023-07-31T00:15:02;19.70;99.90
9837;DHT22;4957;51.412;6.724;2023-07-31T00:17:28;19.70;99.90
9837;DHT22;4957;51.412;6.724;2023-07-31T00:19:53;19.70;99.90
9837;DHT22;4957;51.412;6.724;2023-07-31T00:22:19;19.70;99.90
9837;DHT22;4957;51.412;6.724;2023-07-31T00:24:45;19.70;99.90
9837;DHT22;4957;51.412;6.724;2023-07-31T00:27:10;19.70;99.90
9837;DHT22;4957;51.412;6.724;2023-07-31T00:29:36;19.70;99.90
9837;DHT22;4957;51.412;6.724;2023-07-31T00:32:02;19.70;99.90
9837;DHT22;4957;51.412;6.724;2023-07-31T00:34:27;19.70;99.90
9837;DHT22;4957;51.412;6.724;2023-07-31T00:36:53;19.60;99.90
9837;DHT22;4957;51.412;6.724;2023-07-31T00:39:19;19.60;99.90
9837;DHT22;4957;51.412;6.724;2023-07-31T00:41:44;19.60;99.90
9837;DHT22;4957;51.412;6.724;2023-07-31T00:44:10;19.60;99.90
9837;DHT22;4957;51.412;6.724;2023-07-31T00:46:36;19.60;99.90
9837;DHT22;4957;51.412;6.724;2023-07-31T00:49:02;19.60;99.90
9837;DHT22;4957;51.412;6.724;2023-07-31T00:51:28;19.60;99.90
9837;DHT22;4957;51.412;6.724;2023-07-31T00:53:53;19.50;99.90
9837;DHT22;4957;51.412;6.724;2023-07-31T00:56:23;19.50;99.90
9837;DHT22;4957;51.412;6.724;2023-07-31T00:58:49;19.50;99.90
9837;DHT22;4957;51.412;6.724;2023-07-31T01:01:15;19.50;99.90
9837;DHT22;4957;51.412;6.724;2023-07-31T01:03:41;19.40;99.90
9837;DHT22;4957;51.412;6.724;2023-07-31T01:09:04;19.50;99.90
9837;DHT22;4957;51.412;6.724;2023-07-31T01:11:34;19.50;99.90
9837;DHT22;4957;51.412;6.724;2023-07-31T01:14:00;19.50;99.90
9837;DHT22;4957;51.412;6.724;2023-07-31T01:16:26;19.50;99.90
9837;DHT22;4957;51.412;6.724;2023-07-31T01:18:52;19.40;99.90
9837;DHT22;4957;51.412;6.724;2023-07-31T01:26:39;19.40;99.90
9837;DHT22;4957;51.412;6.724;2023-07-31T01:29:32;19.40;99.90
9837;DHT22;4957;51.412;6.724;2023-07-31T01:32:02;19.40;99.90
9837;DHT22;4957;51.412;6.724;2023-07-31T01:34:29;19.30;99.90
9837;DHT22;4957;51.412;6.724;2023-07-31T01:36:58;19.30;99.90
9837;DHT22;4957;51.412;6.724;2023-07-31T01:39:24;19.30;99.90
9837;DHT22;4957;51.412;6.724;2023-07-31T01:41:50;19.30;99.90
9837;DHT22;4957;51.412;6.724;2023-07-31T01:44:16;19.30;99.90
9837;DHT22;4957;51.412;6.724;2023-07-31T01:46:42;19.30;99.90
9837;DHT22;4957;51.412;6.724;2023-07-31T01:49:07;19.30;99.90
9837;DHT22;4957;51.412;6.724;2023-07-31T01:51:33;19.30;99.90
9837;DHT22;4957;51.412;6.724;2023-07-31T01:54:00;19.20;99.90
9837;DHT22;4957;51.412;6.724;2023-07-31T01:56:26;19.20;99.90
9837;DHT22;4957;51.412;6.724;2023-07-31T01:58:52;19.20;99.90
9837;DHT22;4957;51.412;6.724;2023-07-31T02:01:17;19.20;99.90
9837;DHT22;4957;51.412;6.724;2023-07-31T02:03:43;19.20;99.90
9837;DHT22;4957;51.412;6.724;2023-07-31T02:06:08;19.20;99.90
9837;DHT22;4957;51.412;6.724;2023-07-31T02:08:34;19.20;99.90
9837;DHT22;4957;51.412;6.724;2023-07-31T02:11:00;19.20;99.90
9837;DHT22;4957;51.412;6.724;2023-07-31T02:13:25;19.10;99.90
9837;DHT22;4957;51.412;6.724;2023-07-31T02:15:51;19.20;99.90
9837;DHT22;4957;51.412;6.724;2023-07-31T02:18:17;19.10;99.90
9837;DHT22;4957;51.412;6.724;2023-07-31T02:20:42;19.10;99.90
9837;DHT22;4957;51.412;6.724;2023-07-31T02:23:08;19.10;99.90
9837;DHT22;4957;51.412;6.724;2023-07-31T02:25:34;19.10;99.90
9837;DHT22;4957;51.412;6.724;2023-07-31T02:28:00;19.10;99.90
9837;DHT22;4957;51.412;6.724;2023-07-31T02:30:25;19.10;99.90
9837;DHT22;4957;51.412;6.724;2023-07-31T02:32:51;19.10;99.90
9837;DHT22;4957;51.412;6.724;2023-07-31T02:35:17;19.00;99.90
9837;DHT22;4957;51.412;6.724;2023-07-31T02:37:44;19.00;99.90
9837;DHT22;4957;51.412;6.724;2023-07-31T02:40:09;19.00;99.90
9837;DHT22;4957;51.412;6.724;2023-07-31T02:42:35;19.00;99.90
9837;DHT22;4957;51.412;6.724;2023-07-31T02:45:01;19.00;99.90
9837;DHT22;4957;51.412;6.724;2023-07-31T02:47:26;19.00;99.90
9837;DHT22;4957;51.412;6.724;2023-07-31T02:49:52;19.00;99.90
9837;DHT22;4957;51.412;6.724;2023-07-31T02:52:18;18.90;99.90
9837;DHT22;4957;51.412;6.724;2023-07-31T02:54:43;19.00;99.90
9837;DHT22;4957;51.412;6.724;2023-07-31T02:57:09;18.90;99.90
9837;DHT22;4957;51.412;6.724;2023-07-31T02:59:35;18.90;99.90
9837;DHT22;4957;51.412;6.724;2023-07-31T03:02:01;18.90;99.90
9837;DHT22;4957;51.412;6.724;2023-07-31T03:04:26;18.80;99.90
9837;DHT22;4957;51.412;6.724;2023-07-31T03:06:52;18.80;99.90
9837;DHT22;4957;51.412;6.724;2023-07-31T03:09:18;18.90;99.90
9837;DHT22;4957;51.412;6.724;2023-07-31T03:11:43;18.80;99.90
9837;DHT22;4957;51.412;6.724;2023-07-31T03:14:09;18.80;99.90
9837;DHT22;4957;51.412;6.724;2023-07-31T03:16:34;18.80;99.90
9837;DHT22;4957;51.412;6.724;2023-07-31T03:19:00;18.80;99.90
9837;DHT22;4957;51.412;6.724;2023-07-31T03:21:25;18.80;99.90
9837;DHT22;4957;51.412;6.724;2023-07-31T03:23:51;18.80;99.90
9837;DHT22;4957;51.412;6.724;2023-07-31T03:26:17;18.80;99.90
9837;DHT22;4957;51.412;6.724;2023-07-31T03:28:42;18.80;99.90
9837;DHT22;4957;51.412;6.724;2023-07-31T03:31:08;18.80;99.90
9837;DHT22;4957;51.412;6.724;2023-07-31T03:33:34;18.80;99.90
9837;DHT22;4957;51.412;6.724;2023-07-31T03:35:59;18.70;99.90
9837;DHT22;4957;51.412;6.724;2023-07-31T03:38:25;18.70;99.90
9837;DHT22;4957;51.412;6.724;2023-07-31T03:40:51;18.70;99.90
9837;DHT22;4957;51.412;6.724;2023-07-31T03:43:16;18.70;99.90
9837;DHT22;4957;51.412;6.724;2023-07-31T03:45:42;18.70;99.90
9837;DHT22;4957;51.412;6.724;2023-07-31T03:48:08;18.70;99.90
9837;DHT22;4957;51.412;6.724;2023-07-31T03:50:34;18.70;99.90
9837;DHT22;4957;51.412;6.724;2023-07-31T03:52:59;18.70;99.90
9837;DHT22;4957;51.412;6.724;2023-07-31T03:55:25;18.70;99.90
9837;DHT22;4957;51.412;6.724;2023-07-31T03:57:51;18.70;99.90
9837;DHT22;4957;51.412;6.724;2023-07-31T04:00:16;18.70;99.90
9837;DHT22;4957;51.412;6.724;2023-07-31T04:02:42;18.70;99.90
9837;DHT22;4957;51.412;6.724;2023-07-31T04:05:08;18.70;99.90
9837;DHT22;4957;51.412;6.724;2023-07-31T04:07:33;18.70;99.90
9837;DHT22;4957;51.412;6.724;2023-07-31T04:09:59;18.70;99.90
9837;DHT22;4957;51.412;6.724;2023-07-31T04:12:25;18.70;99.90
9837;DHT22;4957;51.412;6.724;2023-07-31T04:14:51;18.70;99.90
9837;DHT22;4957;51.412;6.724;2023-07-31T04:17:18;18.60;99.90
9837;DHT22;4957;51.412;6.724;2023-07-31T04:19:43;18.60;99.90
9837;DHT22;4957;51.412;6.724;2023-07-31T04:22:09;18.60;99.90
9837;DHT22;4957;51.412;6.724;2023-07-31T04:24:35;18.60;99.90
9837;DHT22;4957;51.412;6.724;2023-07-31T04:27:00;18.60;99.90
9837;DHT22;4957;51.412;6.724;2023-07-31T04:29:26;18.60;99.90
9837;DHT22;4957;51.412;6.724;2023-07-31T04:31:52;18.60;99.90
9837;DHT22;4957;51.412;6.724;2023-07-31T04:34:17;18.60;99.90
9837;DHT22;4957;51.412;6.724;2023-07-31T04:36:43;18.60;99.90
9837;DHT22;4957;51.412;6.724;2023-07-31T04:39:09;18.60;99.90
9837;DHT22;4957;51.412;6.724;2023-07-31T04:41:34;18.60;99.90
9837;DHT22;4957;51.412;6.724;2023-07-31T04:44:00;18.60;99.90
9837;DHT22;4957;51.412;6.724;2023-07-31T04:46:26;18.60;99.90
9837;DHT22;4957;51.412;6.724;2023-07-31T04:48:51;18.60;99.90
9837;DHT22;4957;51.412;6.724;2023-07-31T04:51:17;18.60;99.90
9837;DHT22;4957;51.412;6.724;2023-07-31T04:53:43;18.60;99.90
9837;DHT22;4957;51.412;6.724;2023-07-31T04:56:08;18.60;99.90
9837;DHT22;4957;51.412;6.724;2023-07-31T04:58:34;18.60;99.90
9837;DHT22;4957;51.412;6.724;2023-07-31T05:00:59;18.60;99.90
9837;DHT22;4957;51.412;6.724;2023-07-31T05:03:25;18.60;99.90
9837;DHT22;4957;51.412;6.724;2023-07-31T05:05:51;18.60;99.90
9837;DHT22;4957;51.412;6.724;2023-07-31T05:08:16;18.60;99.90
9837;DHT22;4957;51.412;6.724;2023-07-31T05:10:43;18.60;99.90
9837;DHT22;4957;51.412;6.724;2023-07-31T05:13:09;18.60;99.90
9837;DHT22;4957;51.412;6.724;2023-07-31T05:15:34;18.60;99.90
9837;DHT22;4957;51.412;6.724;2023-07-31T05:18:00;18.60;99.90
9837;DHT22;4957;51.412;6.724;2023-07-31T05:20:26;18.60;99.90
9837;DHT22;4957;51.412;6.724;2023-07-31T05:22:53;18.60;99.90
9837;DHT22;4957;51.412;6.724;2023-07-31T05:25:18;18.60;99.90
9837;DHT22;4957;51.412;6.724;2023-07-31T05:27:44;18.60;99.90
9837;DHT22;4957;51.412;6.724;2023-07-31T05:30:10;18.60;99.90
9837;DHT22;4957;51.412;6.724;2023-07-31T05:32:35;18.60;99.90
9837;DHT22;4957;51.412;6.724;2023-07-31T05:35:01;18.60;99.90
9837;DHT22;4957;51.412;6.724;2023-07-31T05:37:27;18.60;99.90
9837;DHT22;4957;51.412;6.724;2023-07-31T05:39:52;18.60;99.90
9837;DHT22;4957;51.412;6.724;2023-07-31T05:42:18;18.60;99.90
9837;DHT22;4957;51.412;6.724;2023-07-31T05:44:43;18.60;99.90
9837;DHT22;4957;51.412;6.724;2023-07-31T05:47:10;18.60;99.90
9837;DHT22;4957;51.412;6.724;2023-07-31T05:49:35;18.60;99.90
9837;DHT22;4957;51.412;6.724;2023-07-31T05:52:01;18.60;99.90
9837;DHT22;4957;51.412;6.724;2023-07-31T05:54:27;18.60;99.90
9837;DHT22;4957;51.412;6.724;2023-07-31T05:56:52;18.70;99.90
9837;DHT22;4957;51.412;6.724;2023-07-31T05:59:18;18.60;99.90
9837;DHT22;4957;51.412;6.724;2023-07-31T06:01:43;18.60;99.90
9837;DHT22;4957;51.412;6.724;2023-07-31T06:04:09;18.60;99.90
9837;DHT22;4957;51.412;6.724;2023-07-31T06:06:35;18.70;99.90
9837;DHT22;4957;51.412;6.724;2023-07-31T06:09:00;18.70;99.90
9837;DHT22;4957;51.412;6.724;2023-07-31T06:11:26;18.70;99.90
9837;DHT22;4957;51.412;6.724;2023-07-31T06:13:51;18.70;99.90
9837;DHT22;4957;51.412;6.724;2023-07-31T06:16:17;18.70;99.90
9837;DHT22;4957;51.412;6.724;2023-07-31T06:18:43;18.70;99.90
9837;DHT22;4957;51.412;6.724;2023-07-31T06:21:09;18.70;99.90
9837;DHT22;4957;51.412;6.724;2023-07-31T06:23:36;18.70;99.90
9837;DHT22;4957;51.412;6.724;2023-07-31T06:26:02;18.70;99.90
9837;DHT22;4957;51.412;6.724;2023-07-31T06:28:28;18.70;99.90
9837;DHT22;4957;51.412;6.724;2023-07-31T06:30:59;18.70;99.90
9837;DHT22;4957;51.412;6.724;2023-07-31T06:33:26;18.70;99.90
9837;DHT22;4957;51.412;6.724;2023-07-31T06:35:52;18.70;99.90
9837;DHT22;4957;51.412;6.724;2023-07-31T06:38:27;18.70;99.90
9837;DHT22;4957;51.412;6.724;2023-07-31T06:40:53;18.70;99.90
9837;DHT22;4957;51.412;6.724;2023-07-31T06:43:18;18.70;99.90
9837;DHT22;4957;51.412;6.724;2023-07-31T06:45:44;18.80;99.90
9837;DHT22;4957;51.412;6.724;2023-07-31T06:48:11;18.70;99.90
9837;DHT22;4957;51.412;6.724;2023-07-31T06:50:36;18.70;99.90
9837;DHT22;4957;51.412;6.724;2023-07-31T06:53:02;18.80;99.90
9837;DHT22;4957;51.412;6.724;2023-07-31T06:55:28;18.80;99.90
9837;DHT22;4957;51.412;6.724;2023-07-31T06:57:55;18.80;99.90
9837;DHT22;4957;51.412;6.724;2023-07-31T07:00:22;18.80;99.90
9837;DHT22;4957;51.412;6.724;2023-07-31T07:02:48;18.80;99.90
9837;DHT22;4957;51.412;6.724;2023-07-31T07:05:15;18.80;99.90
9837;DHT22;4957;51.412;6.724;2023-07-31T07:07:41;18.80;99.90
9837;DHT22;4957;51.412;6.724;2023-07-31T07:10:07;18.80;99.90
9837;DHT22;4957;51.412;6.724;2023-07-31T07:12:34;18.80;99.90
9837;DHT22;4957;51.412;6.724;2023-07-31T07:15:00;18.90;99.90
9837;DHT22;4957;51.412;6.724;2023-07-31T07:17:29;18.90;99.90
9837;DHT22;4957;51.412;6.724;2023-07-31T07:19:59;18.90;99.90
9837;DHT22;4957;51.412;6.724;2023-07-31T07:22:25;18.90;99.90
9837;DHT22;4957;51.412;6.724;2023-07-31T07:24:52;18.90;99.90
9837;DHT22;4957;51.412;6.724;2023-07-31T07:27:18;18.90;99.90
9837;DHT22;4957;51.412;6.724;2023-07-31T07:29:45;18.90;99.90
9837;DHT22;4957;51.412;6.724;2023-07-31T07:32:11;18.90;99.90
9837;DHT22;4957;51.412;6.724;2023-07-31T07:34:37;18.90;99.90
9837;DHT22;4957;51.412;6.724;2023-07-31T07:37:03;18.90;99.90
9837;DHT22;4957;51.412;6.724;2023-07-31T07:39:29;18.90;99.90
9837;DHT22;4957;51.412;6.724;2023-07-31T07:41:54;18.90;99.90
9837;DHT22;4957;51.412;6.724;2023-07-31T07:44:20;18.90;99.90
9837;DHT22;4957;51.412;6.724;2023-07-31T07:46:46;19.00;99.90
9837;DHT22;4957;51.412;6.724;2023-07-31T07:49:11;19.00;99.90
9837;DHT22;4957;51.412;6.724;2023-07-31T07:51:38;19.00;99.90
9837;DHT22;4957;51.412;6.724;2023-07-31T07:54:03;19.00;99.90
9837;DHT22;4957;51.412;6.724;2023-07-31T07:56:29;19.00;99.90
9837;DHT22;4957;51.412;6.724;2023-07-31T07:58:55;19.00;99.90
9837;DHT22;4957;51.412;6.724;2023-07-31T08:01:20;19.00;99.90
9837;DHT22;4957;51.412;6.724;2023-07-31T08:03:50;19.00;99.90
9837;DHT22;4957;51.412;6.724;2023-07-31T08:06:15;19.00;99.90
9837;DHT22;4957;51.412;6.724;2023-07-31T08:08:41;19.00;99.90
9837;DHT22;4957;51.412;6.724;2023-07-31T08:11:07;19.00;99.90
9837;DHT22;4957;51.412;6.724;2023-07-31T08:13:32;19.00;99.90
9837;DHT22;4957;51.412;6.724;2023-07-31T08:15:58;19.00;99.90
9837;DHT22;4957;51.412;6.724;2023-07-31T08:18:24;19.10;99.90
9837;DHT22;4957;51.412;6.724;2023-07-31T08:20:49;19.10;99.90
9837;DHT22;4957;51.412;6.724;2023-07-31T08:23:15;19.10;99.90
9837;DHT22;4957;51.412;6.724;2023-07-31T08:25:41;19.10;99.90
9837;DHT22;4957;51.412;6.724;2023-07-31T08:28:06;19.20;99.90
9837;DHT22;4957;51.412;6.724;2023-07-31T08:30:33;19.20;99.90
9837;DHT22;4957;51.412;6.724;2023-07-31T08:32:59;19.10;99.90
9837;DHT22;4957;51.412;6.724;2023-07-31T08:35:25;19.20;99.90
9837;DHT22;4957;51.412;6.724;2023-07-31T08:37:51;19.20;99.90
9837;DHT22;4957;51.412;6.724;2023-07-31T08:40:17;19.10;99.90
9837;DHT22;4957;51.412;6.724;2023-07-31T08:42:46;19.10;99.90
9837;DHT22;4957;51.412;6.724;2023-07-31T08:45:16;19.10;99.90
9837;DHT22;4957;51.412;6.724;2023-07-31T08:47:47;19.20;99.90
9837;DHT22;4957;51.412;6.724;2023-07-31T08:50:14;19.10;99.90
9837;DHT22;4957;51.412;6.724;2023-07-31T08:52:40;19.20;99.90
9837;DHT22;4957;51.412;6.724;2023-07-31T08:55:06;19.20;99.90
9837;DHT22;4957;51.412;6.724;2023-07-31T08:57:36;19.20;99.90
9837;DHT22;4957;51.412;6.724;2023-07-31T09:00:03;19.20;99.90
9837;DHT22;4957;51.412;6.724;2023-07-31T09:02:38;19.20;99.90
9837;DHT22;4957;51.412;6.724;2023-07-31T09:05:07;19.20;99.90
9837;DHT22;4957;51.412;6.724;2023-07-31T09:07:34;19.20;99.90
9837;DHT22;4957;51.412;6.724;2023-07-31T09:10:02;19.20;99.90
9837;DHT22;4957;51.412;6.724;2023-07-31T09:12:28;19.20;99.90
9837;DHT22;4957;51.412;6.724;2023-07-31T09:14:54;19.20;99.90
9837;DHT22;4957;51.412;6.724;2023-07-31T09:17:48;19.20;99.90
9837;DHT22;4957;51.412;6.724;2023-07-31T09:20:23;19.30;99.90
9837;DHT22;4957;51.412;6.724;2023-07-31T09:22:49;19.20;99.90
9837;DHT22;4957;51.412;6.724;2023-07-31T09:27:54;19.30;99.90
9837;DHT22;4957;51.412;6.724;2023-07-31T09:30:21;19.30;99.90
9837;DHT22;4957;51.412;6.724;2023-07-31T09:32:49;19.30;99.90
9837;DHT22;4957;51.412;6.724;2023-07-31T09:35:31;19.30;99.90
9837;DHT22;4957;51.412;6.724;2023-07-31T09:38:04;19.40;99.90
9837;DHT22;4957;51.412;6.724;2023-07-31T09:40:35;19.40;99.90
9837;DHT22;4957;51.412;6.724;2023-07-31T09:43:06;19.40;99.90
9837;DHT22;4957;51.412;6.724;2023-07-31T09:45:40;19.40;99.90
9837;DHT22;4957;51.412;6.724;2023-07-31T09:48:17;19.40;99.90
9837;DHT22;4957;51.412;6.724;2023-07-31T09:50:44;19.50;99.90
9837;DHT22;4957;51.412;6.724;2023-07-31T09:53:10;19.50;99.90
9837;DHT22;4957;51.412;6.724;2023-07-31T09:55:37;19.50;99.90
9837;DHT22;4957;51.412;6.724;2023-07-31T09:58:05;19.50;99.90
9837;DHT22;4957;51.412;6.724;2023-07-31T10:00:32;19.50;99.90
9837;DHT22;4957;51.412;6.724;2023-07-31T10:03:05;19.50;99.90
9837;DHT22;4957;51.412;6.724;2023-07-31T10:05:39;19.60;99.90
9837;DHT22;4957;51.412;6.724;2023-07-31T10:08:08;19.60;99.90
9837;DHT22;4957;51.412;6.724;2023-07-31T10:10:36;19.60;99.90
9837;DHT22;4957;51.412;6.724;2023-07-31T10:13:04;19.60;99.90
9837;DHT22;4957;51.412;6.724;2023-07-31T10:15:30;19.60;99.90
9837;DHT22;4957;51.412;6.724;2023-07-31T10:17:58;19.60;99.90
9837;DHT22;4957;51.412;6.724;2023-07-31T10:20:24;19.60;99.90
9837;DHT22;4957;51.412;6.724;2023-07-31T10:22:51;19.60;99.90
9837;DHT22;4957;51.412;6.724;2023-07-31T10:25:18;19.60;99.90
9837;DHT22;4957;51.412;6.724;2023-07-31T10:27:47;19.60;99.90
9837;DHT22;4957;51.412;6.724;2023-07-31T10:30:15;19.70;99.90
9837;DHT22;4957;51.412;6.724;2023-07-31T10:32:43;19.70;99.90
9837;DHT22;4957;51.412;6.724;2023-07-31T10:35:09;19.70;99.90
9837;DHT22;4957;51.412;6.724;2023-07-31T10:37:38;19.70;99.90
9837;DHT22;4957;51.412;6.724;2023-07-31T10:40:38;19.80;99.90
9837;DHT22;4957;51.412;6.724;2023-07-31T10:42:57;19.80;99.90
9837;DHT22;4957;51.412;6.724;2023-07-31T10:48:17;19.90;99.90
9837;DHT22;4957;51.412;6.724;2023-07-31T10:50:55;19.90;99.90
9837;DHT22;4957;51.412;6.724;2023-07-31T10:55:50;20.00;99.90
9837;DHT22;4957;51.412;6.724;2023-07-31T10:58:20;20.00;99.90
9837;DHT22;4957;51.412;6.724;2023-07-31T11:00:46;20.10;99.90
9837;DHT22;4957;51.412;6.724;2023-07-31T11:03:19;20.10;99.90
9837;DHT22;4957;51.412;6.724;2023-07-31T11:05:49;20.20;99.90
9837;DHT22;4957;51.412;6.724;2023-07-31T11:08:20;20.20;99.90
9837;DHT22;4957;51.412;6.724;2023-07-31T11:10:49;20.20;99.90
9837;DHT22;4957;51.412;6.724;2023-07-31T11:13:15;20.30;99.90
9837;DHT22;4957;51.412;6.724;2023-07-31T11:15:41;20.30;99.90
9837;DHT22;4957;51.412;6.724;2023-07-31T11:18:07;20.30;99.90
9837;DHT22;4957;51.412;6.724;2023-07-31T11:20:35;20.40;99.90
9837;DHT22;4957;51.412;6.724;2023-07-31T11:23:02;20.40;99.90
9837;DHT22;4957;51.412;6.724;2023-07-31T11:25:31;20.40;99.90
9837;DHT22;4957;51.412;6.724;2023-07-31T11:27:58;20.50;99.90
9837;DHT22;4957;51.412;6.724;2023-07-31T11:30:27;20.50;99.90
9837;DHT22;4957;51.412;6.724;2023-07-31T11:32:52;20.60;99.90
9837;DHT22;4957;51.412;6.724;2023-07-31T11:35:18;20.60;99.90
9837;DHT22;4957;51.412;6.724;2023-07-31T11:37:44;20.60;99.90
9837;DHT22;4957;51.412;6.724;2023-07-31T11:40:11;20.60;99.90
9837;DHT22;4957;51.412;6.724;2023-07-31T11:42:37;20.60;99.90
9837;DHT22;4957;51.412;6.724;2023-07-31T11:45:06;20.60;99.90
9837;DHT22;4957;51.412;6.724;2023-07-31T11:47:33;20.60;99.90
9837;DHT22;4957;51.412;6.724;2023-07-31T11:50:06;20.70;99.90
9837;DHT22;4957;51.412;6.724;2023-07-31T11:52:42;20.70;99.90
9837;DHT22;4957;51.412;6.724;2023-07-31T11:55:10;20.70;99.90
9837;DHT22;4957;51.412;6.724;2023-07-31T11:57:39;20.70;99.90
9837;DHT22;4957;51.412;6.724;2023-07-31T12:00:07;20.70;99.90
9837;DHT22;4957;51.412;6.724;2023-07-31T12:02:34;20.70;99.90
9837;DHT22;4957;51.412;6.724;2023-07-31T12:04:59;20.60;99.90
9837;DHT22;4957;51.412;6.724;2023-07-31T12:07:25;20.70;99.90
9837;DHT22;4957;51.412;6.724;2023-07-31T12:09:53;20.70;99.90
9837;DHT22;4957;51.412;6.724;2023-07-31T12:12:20;20.60;99.90
9837;DHT22;4957;51.412;6.724;2023-07-31T12:14:47;20.60;99.90
9837;DHT22;4957;51.412;6.724;2023-07-31T12:17:14;20.60;99.90
9837;DHT22;4957;51.412;6.724;2023-07-31T12:19:39;20.60;99.90
9837;DHT22;4957;51.412;6.724;2023-07-31T12:22:15;20.60;99.90
9837;DHT22;4957;51.412;6.724;2023-07-31T12:24:43;20.60;99.90
9837;DHT22;4957;51.412;6.724;2023-07-31T12:27:13;20.60;99.90
9837;DHT22;4957;51.412;6.724;2023-07-31T12:29:41;20.60;99.90
9837;DHT22;4957;51.412;6.724;2023-07-31T12:32:23;20.60;99.90
9837;DHT22;4957;51.412;6.724;2023-07-31T12:34:50;20.60;99.90
9837;DHT22;4957;51.412;6.724;2023-07-31T12:37:16;20.70;99.90
9837;DHT22;4957;51.412;6.724;2023-07-31T12:39:42;20.70;99.90
9837;DHT22;4957;51.412;6.724;2023-07-31T12:42:08;20.70;99.90
9837;DHT22;4957;51.412;6.724;2023-07-31T12:44:33;20.70;99.90
9837;DHT22;4957;51.412;6.724;2023-07-31T12:46:59;20.70;99.90
9837;DHT22;4957;51.412;6.724;2023-07-31T12:49:24;20.70;99.90
9837;DHT22;4957;51.412;6.724;2023-07-31T12:51:50;20.70;99.90
9837;DHT22;4957;51.412;6.724;2023-07-31T12:54:16;20.70;99.90
9837;DHT22;4957;51.412;6.724;2023-07-31T12:56:41;20.70;99.90
9837;DHT22;4957;51.412;6.724;2023-07-31T12:59:07;20.70;99.90
9837;DHT22;4957;51.412;6.724;2023-07-31T13:01:33;20.70;99.90
9837;DHT22;4957;51.412;6.724;2023-07-31T13:03:59;20.70;99.90
9837;DHT22;4957;51.412;6.724;2023-07-31T13:06:27;20.70;99.90
9837;DHT22;4957;51.412;6.724;2023-07-31T13:08:53;20.70;99.90
9837;DHT22;4957;51.412;6.724;2023-07-31T13:11:19;20.80;99.90
9837;DHT22;4957;51.412;6.724;2023-07-31T13:13:44;20.80;99.90
9837;DHT22;4957;51.412;6.724;2023-07-31T13:16:10;20.80;99.90
9837;DHT22;4957;51.412;6.724;2023-07-31T13:18:36;20.80;99.90
9837;DHT22;4957;51.412;6.724;2023-07-31T13:21:01;20.80;99.90
9837;DHT22;4957;51.412;6.724;2023-07-31T13:23:27;20.80;99.90
9837;DHT22;4957;51.412;6.724;2023-07-31T13:25:53;20.90;99.90
9837;DHT22;4957;51.412;6.724;2023-07-31T13:28:18;20.90;99.90
9837;DHT22;4957;51.412;6.724;2023-07-31T13:30:44;20.90;99.90
9837;DHT22;4957;51.412;6.724;2023-07-31T13:33:09;21.00;99.90
9837;DHT22;4957;51.412;6.724;2023-07-31T13:35:35;20.90;99.90
9837;DHT22;4957;51.412;6.724;2023-07-31T13:38:01;20.90;99.90
9837;DHT22;4957;51.412;6.724;2023-07-31T13:40:26;20.90;99.90
9837;DHT22;4957;51.412;6.724;2023-07-31T13:42:52;21.00;99.90
9837;DHT22;4957;51.412;6.724;2023-07-31T13:45:18;21.00;99.90
9837;DHT22;4957;51.412;6.724;2023-07-31T13:47:44;21.00;99.90
9837;DHT22;4957;51.412;6.724;2023-07-31T13:50:10;21.00;99.90
9837;DHT22;4957;51.412;6.724;2023-07-31T13:52:35;21.00;99.90
9837;DHT22;4957;51.412;6.724;2023-07-31T13:55:01;21.00;99.90
9837;DHT22;4957;51.412;6.724;2023-07-31T13:57:26;21.00;99.90
9837;DHT22;4957;51.412;6.724;2023-07-31T13:59:52;21.10;99.90
9837;DHT22;4957;51.412;6.724;2023-07-31T14:02:18;21.10;99.90
9837;DHT22;4957;51.412;6.724;2023-07-31T14:04:44;21.10;99.90
9837;DHT22;4957;51.412;6.724;2023-07-31T14:07:09;21.10;99.90
9837;DHT22;4957;51.412;6.724;2023-07-31T14:09:35;21.10;99.90
9837;DHT22;4957;51.412;6.724;2023-07-31T14:12:00;21.20;99.90
9837;DHT22;4957;51.412;6.724;2023-07-31T14:14:26;21.20;99.90
9837;DHT22;4957;51.412;6.724;2023-07-31T14:16:52;21.20;99.90
9837;DHT22;4957;51.412;6.724;2023-07-31T14:19:17;21.20;99.90
9837;DHT22;4957;51.412;6.724;2023-07-31T14:21:43;21.30;99.90
9837;DHT22;4957;51.412;6.724;2023-07-31T14:24:08;21.30;99.90
9837;DHT22;4957;51.412;6.724;2023-07-31T14:26:34;21.30;99.90
9837;DHT22;4957;51.412;6.724;2023-07-31T14:29:00;21.30;99.90
9837;DHT22;4957;51.412;6.724;2023-07-31T14:31:25;21.20;99.90
9837;DHT22;4957;51.412;6.724;2023-07-31T14:33:51;21.20;99.90
9837;DHT22;4957;51.412;6.724;2023-07-31T14:36:17;21.20;99.90
9837;DHT22;4957;51.412;6.724;2023-07-31T14:38:42;21.20;99.90
9837;DHT22;4957;51.412;6.724;2023-07-31T14:41:08;21.20;99.90
9837;DHT22;4957;51.412;6.724;2023-07-31T14:43:34;21.20;99.90
9837;DHT22;4957;51.412;6.724;2023-07-31T14:45:59;21.10;99.90
9837;DHT22;4957;51.412;6.724;2023-07-31T14:48:26;21.10;99.90
9837;DHT22;4957;51.412;6.724;2023-07-31T14:50:52;21.10;99.90
9837;DHT22;4957;51.412;6.724;2023-07-31T14:53:18;21.10;99.90
9837;DHT22;4957;51.412;6.724;2023-07-31T14:55:44;21.00;99.90
9837;DHT22;4957;51.412;6.724;2023-07-31T14:58:09;21.00;99.90
9837;DHT22;4957;51.412;6.724;2023-07-31T15:00:36;21.00;99.90
9837;DHT22;4957;51.412;6.724;2023-07-31T15:03:02;21.00;99.90
9837;DHT22;4957;51.412;6.724;2023-07-31T15:05:28;20.90;99.90
9837;DHT22;4957;51.412;6.724;2023-07-31T15:07:54;20.90;99.90
9837;DHT22;4957;51.412;6.724;2023-07-31T15:10:19;20.90;99.90
9837;DHT22;4957;51.412;6.724;2023-07-31T15:12:45;20.90;99.90
9837;DHT22;4957;51.412;6.724;2023-07-31T15:15:11;20.90;99.90
9837;DHT22;4957;51.412;6.724;2023-07-31T15:17:37;20.90;99.90
9837;DHT22;4957;51.412;6.724;2023-07-31T15:20:03;20.80;99.90
9837;DHT22;4957;51.412;6.724;2023-07-31T15:22:29;20.80;99.90
9837;DHT22;4957;51.412;6.724;2023-07-31T15:24:56;20.80;99.90
9837;DHT22;4957;51.412;6.724;2023-07-31T15:27:22;20.80;99.90
9837;DHT22;4957;51.412;6.724;2023-07-31T15:29:49;20.80;99.90
9837;DHT22;4957;51.412;6.724;2023-07-31T15:32:16;20.70;99.90
9837;DHT22;4957;51.412;6.724;2023-07-31T15:34:43;20.70;99.90
9837;DHT22;4957;51.412;6.724;2023-07-31T15:37:09;20.70;99.90
9837;DHT22;4957;51.412;6.724;2023-07-31T15:39:34;20.70;99.90
9837;DHT22;4957;51.412;6.724;2023-07-31T15:42:00;20.70;99.90
9837;DHT22;4957;51.412;6.724;2023-07-31T15:44:26;20.70;99.90
9837;DHT22;4957;51.412;6.724;2023-07-31T15:46:51;20.70;99.90
9837;DHT22;4957;51.412;6.724;2023-07-31T15:49:17;20.70;99.90
9837;DHT22;4957;51.412;6.724;2023-07-31T15:51:43;20.70;99.90
9837;DHT22;4957;51.412;6.724;2023-07-31T15:54:08;20.70;99.90
9837;DHT22;4957;51.412;6.724;2023-07-31T15:56:34;20.60;99.90
9837;DHT22;4957;51.412;6.724;2023-07-31T15:59:00;20.60;99.90
9837;DHT22;4957;51.412;6.724;2023-07-31T16:01:26;20.60;99.90
9837;DHT22;4957;51.412;6.724;2023-07-31T16:03:53;20.60;99.90
9837;DHT22;4957;51.412;6.724;2023-07-31T16:06:18;20.60;99.90
9837;DHT22;4957;51.412;6.724;2023-07-31T16:08:44;20.50;99.90
9837;DHT22;4957;51.412;6.724;2023-07-31T16:11:10;20.60;99.90
9837;DHT22;4957;51.412;6.724;2023-07-31T16:13:36;20.50;99.90